sensor_id;sensor_type;location;lat;lon;timestamp;temperature;humidity
11142;DHT22;5625;50.122;19.864;2023-05-16T00:01:56;12.20;99.90
11142;DHT22;5625;50.122;19.864;2023-05-16T00:04:24;12.20;99.90
11142;DHT22;5625;50.122;19.864;2023-05-16T00:06:53;12.10;99.90
11142;DHT22;5625;50.122;19.864;2023-05-16T00:09:21;12.10;99.90
11142;DHT22;5625;50.122;19.864;2023-05-16T00:11:49;12.10;99.90
11142;DHT22;5625;50.122;19.864;2023-05-16T00:14:19;12.00;99.90
11142;DHT22;5625;50.122;19.864;2023-05-16T00:16:47;12.10;99.90
11142;DHT22;5625;50.122;19.864;2023-05-16T00:19:16;12.00;99.90
11142;DHT22;5625;50.122;19.864;2023-05-16T00:21:47;12.00;99.90
11142;DHT22;5625;50.122;19.864;2023-05-16T00:24:15;12.00;99.90
11142;DHT22;5625;50.122;19.864;2023-05-16T00:26:43;11.90;99.90
11142;DHT22;5625;50.122;19.864;2023-05-16T00:29:11;11.90;99.90
11142;DHT22;5625;50.122;19.864;2023-05-16T00:31:40;11.90;99.90
11142;DHT22;5625;50.122;19.864;2023-05-16T00:34:08;11.90;99.90
11142;DHT22;5625;50.122;19.864;2023-05-16T00:36:36;11.90;99.90
11142;DHT22;5625;50.122;19.864;2023-05-16T00:39:04;11.80;99.90
11142;DHT22;5625;50.122;19.864;2023-05-16T00:41:33;11.80;99.90
11142;DHT22;5625;50.122;19.864;2023-05-16T00:44:01;11.80;99.90
11142;DHT22;5625;50.122;19.864;2023-05-16T00:46:29;11.80;99.90
11142;DHT22;5625;50.122;19.864;2023-05-16T00:49:02;11.80;99.90
11142;DHT22;5625;50.122;19.864;2023-05-16T00:51:30;11.70;99.90
11142;DHT22;5625;50.122;19.864;2023-05-16T00:53:58;11.70;99.90
11142;DHT22;5625;50.122;19.864;2023-05-16T00:56:26;11.70;99.90
11142;DHT22;5625;50.122;19.864;2023-05-16T00:58:54;11.70;99.90
11142;DHT22;5625;50.122;19.864;2023-05-16T01:01:24;11.70;99.90
11142;DHT22;5625;50.122;19.864;2023-05-16T01:03:53;11.60;99.90
11142;DHT22;5625;50.122;19.864;2023-05-16T01:06:23;11.60;99.90
11142;DHT22;5625;50.122;19.864;2023-05-16T01:08:51;11.60;99.90
11142;DHT22;5625;50.122;19.864;2023-05-16T01:11:24;11.60;99.90
11142;DHT22;5625;50.122;19.864;2023-05-16T01:13:59;11.60;99.90
11142;DHT22;5625;50.122;19.864;2023-05-16T01:16:33;11.50;99.90
11142;DHT22;5625;50.122;19.864;2023-05-16T01:19:12;11.50;99.90
11142;DHT22;5625;50.122;19.864;2023-05-16T01:21:47;11.50;99.90
11142;DHT22;5625;50.122;19.864;2023-05-16T01:24:22;11.50;99.90
11142;DHT22;5625;50.122;19.864;2023-05-16T01:26:57;11.50;99.90
11142;DHT22;5625;50.122;19.864;2023-05-16T01:29:25;11.50;99.90
11142;DHT22;5625;50.122;19.864;2023-05-16T01:31:53;11.50;99.90
11142;DHT22;5625;50.122;19.864;2023-05-16T01:34:21;11.40;99.90
11142;DHT22;5625;50.122;19.864;2023-05-16T01:36:55;11.40;99.90
11142;DHT22;5625;50.122;19.864;2023-05-16T01:39:32;11.40;99.90
11142;DHT22;5625;50.122;19.864;2023-05-16T01:42:08;11.30;99.90
11142;DHT22;5625;50.122;19.864;2023-05-16T01:44:43;11.30;99.90
11142;DHT22;5625;50.122;19.864;2023-05-16T01:47:13;11.30;99.90
11142;DHT22;5625;50.122;19.864;2023-05-16T01:49:48;11.30;99.90
11142;DHT22;5625;50.122;19.864;2023-05-16T01:52:21;11.30;99.90
11142;DHT22;5625;50.122;19.864;2023-05-16T01:54:52;11.20;99.90
11142;DHT22;5625;50.122;19.864;2023-05-16T01:57:27;11.30;99.90
11142;DHT22;5625;50.122;19.864;2023-05-16T01:59:57;11.20;99.90
11142;DHT22;5625;50.122;19.864;2023-05-16T02:02:28;11.20;99.90
11142;DHT22;5625;50.122;19.864;2023-05-16T02:04:56;11.20;99.90
11142;DHT22;5625;50.122;19.864;2023-05-16T02:07:24;11.20;99.90
11142;DHT22;5625;50.122;19.864;2023-05-16T02:09:52;11.20;99.90
11142;DHT22;5625;50.122;19.864;2023-05-16T02:12:20;11.10;99.90
11142;DHT22;5625;50.122;19.864;2023-05-16T02:14:50;11.10;99.90
11142;DHT22;5625;50.122;19.864;2023-05-16T02:17:18;11.10;99.90
11142;DHT22;5625;50.122;19.864;2023-05-16T02:19:47;11.10;99.90
11142;DHT22;5625;50.122;19.864;2023-05-16T02:22:15;11.10;99.90
11142;DHT22;5625;50.122;19.864;2023-05-16T02:24:43;11.10;99.90
11142;DHT22;5625;50.122;19.864;2023-05-16T02:27:11;11.00;99.90
11142;DHT22;5625;50.122;19.864;2023-05-16T02:29:39;11.00;99.90
11142;DHT22;5625;50.122;19.864;2023-05-16T02:32:08;11.00;99.90
11142;DHT22;5625;50.122;19.864;2023-05-16T02:34:37;11.00;99.90
11142;DHT22;5625;50.122;19.864;2023-05-16T02:37:05;11.00;99.90
11142;DHT22;5625;50.122;19.864;2023-05-16T02:39:33;11.00;99.90
11142;DHT22;5625;50.122;19.864;2023-05-16T02:42:01;11.00;99.90
11142;DHT22;5625;50.122;19.864;2023-05-16T02:44:29;11.00;99.90
11142;DHT22;5625;50.122;19.864;2023-05-16T02:46:57;10.90;99.90
11142;DHT22;5625;50.122;19.864;2023-05-16T02:49:26;10.90;99.90
11142;DHT22;5625;50.122;19.864;2023-05-16T02:51:54;10.90;99.90
11142;DHT22;5625;50.122;19.864;2023-05-16T02:54:23;10.80;99.90
11142;DHT22;5625;50.122;19.864;2023-05-16T02:56:51;10.80;99.90
11142;DHT22;5625;50.122;19.864;2023-05-16T02:59:19;10.80;99.90
11142;DHT22;5625;50.122;19.864;2023-05-16T03:01:47;10.80;99.90
11142;DHT22;5625;50.122;19.864;2023-05-16T03:04:15;10.80;99.90
11142;DHT22;5625;50.122;19.864;2023-05-16T03:06:46;10.80;99.90
11142;DHT22;5625;50.122;19.864;2023-05-16T03:09:14;10.80;99.90
11142;DHT22;5625;50.122;19.864;2023-05-16T03:11:42;10.70;99.90
11142;DHT22;5625;50.122;19.864;2023-05-16T03:14:10;10.70;99.90
11142;DHT22;5625;50.122;19.864;2023-05-16T03:16:38;10.70;99.90
11142;DHT22;5625;50.122;19.864;2023-05-16T03:19:09;10.60;99.90
11142;DHT22;5625;50.122;19.864;2023-05-16T03:21:37;10.60;99.90
11142;DHT22;5625;50.122;19.864;2023-05-16T03:24:07;10.60;99.90
11142;DHT22;5625;50.122;19.864;2023-05-16T03:26:35;10.60;99.90
11142;DHT22;5625;50.122;19.864;2023-05-16T03:29:03;10.70;99.90
11142;DHT22;5625;50.122;19.864;2023-05-16T03:31:31;10.70;99.90
11142;DHT22;5625;50.122;19.864;2023-05-16T03:33:59;10.80;99.90
11142;DHT22;5625;50.122;19.864;2023-05-16T03:36:27;10.80;99.90
11142;DHT22;5625;50.122;19.864;2023-05-16T03:38:55;10.80;99.90
11142;DHT22;5625;50.122;19.864;2023-05-16T03:41:24;10.80;99.90
11142;DHT22;5625;50.122;19.864;2023-05-16T03:43:53;10.80;99.90
11142;DHT22;5625;50.122;19.864;2023-05-16T03:46:21;10.90;99.90
11142;DHT22;5625;50.122;19.864;2023-05-16T03:48:50;10.90;99.90
11142;DHT22;5625;50.122;19.864;2023-05-16T03:51:18;10.90;99.90
11142;DHT22;5625;50.122;19.864;2023-05-16T03:53:47;10.90;99.90
11142;DHT22;5625;50.122;19.864;2023-05-16T03:56:15;10.90;99.90
11142;DHT22;5625;50.122;19.864;2023-05-16T03:58:44;11.00;99.90
11142;DHT22;5625;50.122;19.864;2023-05-16T04:01:12;11.00;99.90
11142;DHT22;5625;50.122;19.864;2023-05-16T04:03:43;11.00;99.90
11142;DHT22;5625;50.122;19.864;2023-05-16T04:06:11;11.10;99.90
11142;DHT22;5625;50.122;19.864;2023-05-16T04:08:39;11.10;99.90
11142;DHT22;5625;50.122;19.864;2023-05-16T04:11:10;11.10;99.90
11142;DHT22;5625;50.122;19.864;2023-05-16T04:13:38;11.10;99.90
11142;DHT22;5625;50.122;19.864;2023-05-16T04:16:08;11.20;99.90
11142;DHT22;5625;50.122;19.864;2023-05-16T04:18:36;11.20;99.90
11142;DHT22;5625;50.122;19.864;2023-05-16T04:21:04;11.20;99.90
11142;DHT22;5625;50.122;19.864;2023-05-16T04:23:33;11.30;99.90
11142;DHT22;5625;50.122;19.864;2023-05-16T04:26:01;11.30;99.90
11142;DHT22;5625;50.122;19.864;2023-05-16T04:28:30;11.40;99.90
11142;DHT22;5625;50.122;19.864;2023-05-16T04:30:58;11.40;99.90
11142;DHT22;5625;50.122;19.864;2023-05-16T04:33:28;11.40;99.90
11142;DHT22;5625;50.122;19.864;2023-05-16T04:35:56;11.50;99.90
11142;DHT22;5625;50.122;19.864;2023-05-16T04:38:25;11.50;99.90
11142;DHT22;5625;50.122;19.864;2023-05-16T04:40:53;11.60;99.90
11142;DHT22;5625;50.122;19.864;2023-05-16T04:43:21;11.60;99.90
11142;DHT22;5625;50.122;19.864;2023-05-16T04:45:49;11.70;99.90
11142;DHT22;5625;50.122;19.864;2023-05-16T04:48:19;11.70;99.90
11142;DHT22;5625;50.122;19.864;2023-05-16T04:50:49;11.80;99.90
11142;DHT22;5625;50.122;19.864;2023-05-16T04:53:18;11.90;99.90
11142;DHT22;5625;50.122;19.864;2023-05-16T04:55:47;12.00;99.90
11142;DHT22;5625;50.122;19.864;2023-05-16T04:58:15;12.20;99.90
11142;DHT22;5625;50.122;19.864;2023-05-16T05:00:43;12.30;99.90
11142;DHT22;5625;50.122;19.864;2023-05-16T05:03:11;12.40;99.90
11142;DHT22;5625;50.122;19.864;2023-05-16T05:05:39;12.60;99.90
11142;DHT22;5625;50.122;19.864;2023-05-16T05:08:08;12.80;99.90
11142;DHT22;5625;50.122;19.864;2023-05-16T05:10:36;12.90;99.90
11142;DHT22;5625;50.122;19.864;2023-05-16T05:13:04;13.10;99.90
11142;DHT22;5625;50.122;19.864;2023-05-16T05:15:33;13.30;99.90
11142;DHT22;5625;50.122;19.864;2023-05-16T05:18:03;13.50;99.90
11142;DHT22;5625;50.122;19.864;2023-05-16T05:20:32;13.70;99.90
11142;DHT22;5625;50.122;19.864;2023-05-16T05:23:00;13.90;99.90
11142;DHT22;5625;50.122;19.864;2023-05-16T05:25:29;14.10;99.90
11142;DHT22;5625;50.122;19.864;2023-05-16T05:28:01;14.30;99.90
11142;DHT22;5625;50.122;19.864;2023-05-16T05:30:29;14.60;99.90
11142;DHT22;5625;50.122;19.864;2023-05-16T05:32:57;14.80;99.60
11142;DHT22;5625;50.122;19.864;2023-05-16T05:35:29;15.10;93.20
11142;DHT22;5625;50.122;19.864;2023-05-16T05:37:57;15.30;66.10
11142;DHT22;5625;50.122;19.864;2023-05-16T05:40:25;15.50;78.90
11142;DHT22;5625;50.122;19.864;2023-05-16T05:42:57;15.60;55.90
11142;DHT22;5625;50.122;19.864;2023-05-16T05:45:25;15.90;50.60
11142;DHT22;5625;50.122;19.864;2023-05-16T05:47:53;16.20;39.90
11142;DHT22;5625;50.122;19.864;2023-05-16T05:50:23;16.40;10.00
11142;DHT22;5625;50.122;19.864;2023-05-16T05:52:51;16.70;3.00
11142;DHT22;5625;50.122;19.864;2023-05-16T05:55:19;17.00;1.00
11142;DHT22;5625;50.122;19.864;2023-05-16T05:57:47;17.20;1.00
11142;DHT22;5625;50.122;19.864;2023-05-16T06:00:17;17.50;1.00
11142;DHT22;5625;50.122;19.864;2023-05-16T06:02:45;17.90;1.00
11142;DHT22;5625;50.122;19.864;2023-05-16T06:05:13;18.30;1.00
11142;DHT22;5625;50.122;19.864;2023-05-16T06:07:41;18.60;1.00
11142;DHT22;5625;50.122;19.864;2023-05-16T06:10:09;18.80;99.90
11142;DHT22;5625;50.122;19.864;2023-05-16T06:12:37;18.90;99.90
11142;DHT22;5625;50.122;19.864;2023-05-16T06:15:06;19.20;99.90
11142;DHT22;5625;50.122;19.864;2023-05-16T06:17:36;19.40;99.90
11142;DHT22;5625;50.122;19.864;2023-05-16T06:20:08;19.60;99.90
11142;DHT22;5625;50.122;19.864;2023-05-16T06:22:36;19.80;99.90
11142;DHT22;5625;50.122;19.864;2023-05-16T06:25:05;20.10;99.90
11142;DHT22;5625;50.122;19.864;2023-05-16T06:27:33;20.20;79.90
11142;DHT22;5625;50.122;19.864;2023-05-16T06:30:01;20.30;60.40
11142;DHT22;5625;50.122;19.864;2023-05-16T06:32:29;20.60;1.00
11142;DHT22;5625;50.122;19.864;2023-05-16T06:34:58;20.90;99.90
11142;DHT22;5625;50.122;19.864;2023-05-16T06:37:26;21.10;1.00
11142;DHT22;5625;50.122;19.864;2023-05-16T06:39:54;21.20;1.00
11142;DHT22;5625;50.122;19.864;2023-05-16T06:42:22;21.60;99.90
11142;DHT22;5625;50.122;19.864;2023-05-16T06:44:50;22.00;1.00
11142;DHT22;5625;50.122;19.864;2023-05-16T06:47:19;22.20;99.90
11142;DHT22;5625;50.122;19.864;2023-05-16T06:49:47;22.30;99.90
11142;DHT22;5625;50.122;19.864;2023-05-16T06:52:16;22.50;1.00
11142;DHT22;5625;50.122;19.864;2023-05-16T06:54:44;22.90;99.90
11142;DHT22;5625;50.122;19.864;2023-05-16T06:57:15;23.20;99.90
11142;DHT22;5625;50.122;19.864;2023-05-16T06:59:43;23.50;9.70
11142;DHT22;5625;50.122;19.864;2023-05-16T07:02:11;23.70;1.00
11142;DHT22;5625;50.122;19.864;2023-05-16T07:04:39;23.90;99.90
11142;DHT22;5625;50.122;19.864;2023-05-16T07:07:07;24.10;99.90
11142;DHT22;5625;50.122;19.864;2023-05-16T07:09:36;24.40;1.00
11142;DHT22;5625;50.122;19.864;2023-05-16T07:12:05;24.60;1.00
11142;DHT22;5625;50.122;19.864;2023-05-16T07:14:38;24.70;99.90
11142;DHT22;5625;50.122;19.864;2023-05-16T07:17:10;24.90;99.90
11142;DHT22;5625;50.122;19.864;2023-05-16T07:19:38;25.20;99.90
11142;DHT22;5625;50.122;19.864;2023-05-16T07:22:06;25.50;99.90
11142;DHT22;5625;50.122;19.864;2023-05-16T07:24:35;25.80;99.90
11142;DHT22;5625;50.122;19.864;2023-05-16T07:27:04;26.00;1.00
11142;DHT22;5625;50.122;19.864;2023-05-16T07:29:35;25.90;1.00
11142;DHT22;5625;50.122;19.864;2023-05-16T07:32:04;25.90;99.90
11142;DHT22;5625;50.122;19.864;2023-05-16T07:34:35;26.00;99.90
11142;DHT22;5625;50.122;19.864;2023-05-16T07:37:04;26.10;99.90
11142;DHT22;5625;50.122;19.864;2023-05-16T07:39:39;26.40;99.90
11142;DHT22;5625;50.122;19.864;2023-05-16T07:42:08;26.70;99.90
11142;DHT22;5625;50.122;19.864;2023-05-16T07:44:36;27.00;99.90
11142;DHT22;5625;50.122;19.864;2023-05-16T07:47:04;26.80;99.90
11142;DHT22;5625;50.122;19.864;2023-05-16T07:49:34;27.10;99.90
11142;DHT22;5625;50.122;19.864;2023-05-16T07:52:02;27.20;99.90
11142;DHT22;5625;50.122;19.864;2023-05-16T07:54:33;27.10;99.90
11142;DHT22;5625;50.122;19.864;2023-05-16T07:57:03;27.30;99.90
11142;DHT22;5625;50.122;19.864;2023-05-16T07:59:31;27.30;99.90
11142;DHT22;5625;50.122;19.864;2023-05-16T08:02:00;27.40;99.90
11142;DHT22;5625;50.122;19.864;2023-05-16T08:04:28;27.40;99.90
11142;DHT22;5625;50.122;19.864;2023-05-16T08:06:58;27.20;98.10
11142;DHT22;5625;50.122;19.864;2023-05-16T08:09:26;27.00;93.60
11142;DHT22;5625;50.122;19.864;2023-05-16T08:11:54;26.70;99.90
11142;DHT22;5625;50.122;19.864;2023-05-16T08:14:24;26.40;69.60
11142;DHT22;5625;50.122;19.864;2023-05-16T08:16:54;26.30;62.80
11142;DHT22;5625;50.122;19.864;2023-05-16T08:19:25;25.80;60.30
11142;DHT22;5625;50.122;19.864;2023-05-16T08:21:53;26.00;99.90
11142;DHT22;5625;50.122;19.864;2023-05-16T08:24:21;26.20;99.90
11142;DHT22;5625;50.122;19.864;2023-05-16T08:26:50;26.10;85.10
11142;DHT22;5625;50.122;19.864;2023-05-16T08:29:18;26.30;99.90
11142;DHT22;5625;50.122;19.864;2023-05-16T08:31:47;26.40;58.90
11142;DHT22;5625;50.122;19.864;2023-05-16T08:34:16;26.20;40.00
11142;DHT22;5625;50.122;19.864;2023-05-16T08:36:44;26.40;94.40
11142;DHT22;5625;50.122;19.864;2023-05-16T08:39:15;26.60;97.60
11142;DHT22;5625;50.122;19.864;2023-05-16T08:41:43;27.10;99.90
11142;DHT22;5625;50.122;19.864;2023-05-16T08:44:11;27.30;55.60
11142;DHT22;5625;50.122;19.864;2023-05-16T08:46:52;27.50;1.00
11142;DHT22;5625;50.122;19.864;2023-05-16T08:49:20;27.60;1.00
11142;DHT22;5625;50.122;19.864;2023-05-16T08:51:51;27.80;1.00
11142;DHT22;5625;50.122;19.864;2023-05-16T08:54:23;28.00;1.00
11142;DHT22;5625;50.122;19.864;2023-05-16T08:56:54;27.90;1.00
11142;DHT22;5625;50.122;19.864;2023-05-16T08:59:22;27.80;1.00
11142;DHT22;5625;50.122;19.864;2023-05-16T09:01:53;27.60;1.00
11142;DHT22;5625;50.122;19.864;2023-05-16T09:04:22;27.60;1.00
11142;DHT22;5625;50.122;19.864;2023-05-16T09:06:51;28.10;1.00
11142;DHT22;5625;50.122;19.864;2023-05-16T09:09:19;28.30;1.00
11142;DHT22;5625;50.122;19.864;2023-05-16T09:11:47;28.00;1.00
11142;DHT22;5625;50.122;19.864;2023-05-16T09:14:16;27.20;99.90
11142;DHT22;5625;50.122;19.864;2023-05-16T09:16:44;27.60;99.90
11142;DHT22;5625;50.122;19.864;2023-05-16T09:19:17;27.70;99.90
11142;DHT22;5625;50.122;19.864;2023-05-16T09:21:45;27.70;1.00
11142;DHT22;5625;50.122;19.864;2023-05-16T09:24:13;27.90;1.00
11142;DHT22;5625;50.122;19.864;2023-05-16T09:26:43;28.00;1.00
11142;DHT22;5625;50.122;19.864;2023-05-16T09:29:12;28.50;1.00
11142;DHT22;5625;50.122;19.864;2023-05-16T09:31:41;28.50;1.00
11142;DHT22;5625;50.122;19.864;2023-05-16T09:34:09;28.40;99.90
11142;DHT22;5625;50.122;19.864;2023-05-16T09:36:40;28.30;99.90
11142;DHT22;5625;50.122;19.864;2023-05-16T09:39:09;28.70;99.90
11142;DHT22;5625;50.122;19.864;2023-05-16T09:41:42;28.60;99.90
11142;DHT22;5625;50.122;19.864;2023-05-16T09:44:10;28.30;99.90
11142;DHT22;5625;50.122;19.864;2023-05-16T09:46:38;28.30;99.90
11142;DHT22;5625;50.122;19.864;2023-05-16T09:49:10;28.40;99.90
11142;DHT22;5625;50.122;19.864;2023-05-16T09:51:41;28.40;99.90
11142;DHT22;5625;50.122;19.864;2023-05-16T09:54:09;28.20;99.90
11142;DHT22;5625;50.122;19.864;2023-05-16T09:56:47;27.90;99.90
11142;DHT22;5625;50.122;19.864;2023-05-16T09:59:16;27.70;99.90
11142;DHT22;5625;50.122;19.864;2023-05-16T10:01:44;28.10;99.90
11142;DHT22;5625;50.122;19.864;2023-05-16T10:04:12;28.20;99.90
11142;DHT22;5625;50.122;19.864;2023-05-16T10:06:45;28.00;99.90
11142;DHT22;5625;50.122;19.864;2023-05-16T10:09:14;28.20;99.90
11142;DHT22;5625;50.122;19.864;2023-05-16T10:11:44;28.50;99.90
11142;DHT22;5625;50.122;19.864;2023-05-16T10:14:15;28.70;99.90
11142;DHT22;5625;50.122;19.864;2023-05-16T10:16:48;28.40;99.90
11142;DHT22;5625;50.122;19.864;2023-05-16T10:19:20;28.30;99.90
11142;DHT22;5625;50.122;19.864;2023-05-16T10:21:53;28.10;99.90
11142;DHT22;5625;50.122;19.864;2023-05-16T10:24:28;27.70;99.90
11142;DHT22;5625;50.122;19.864;2023-05-16T10:26:58;28.00;99.90
11142;DHT22;5625;50.122;19.864;2023-05-16T10:29:27;27.90;99.90
11142;DHT22;5625;50.122;19.864;2023-05-16T10:32:04;27.60;99.90
11142;DHT22;5625;50.122;19.864;2023-05-16T10:34:33;27.60;99.90
11142;DHT22;5625;50.122;19.864;2023-05-16T10:37:04;27.70;99.90
11142;DHT22;5625;50.122;19.864;2023-05-16T10:39:33;27.60;99.90
11142;DHT22;5625;50.122;19.864;2023-05-16T10:42:01;27.80;99.90
11142;DHT22;5625;50.122;19.864;2023-05-16T10:44:31;27.70;99.90
11142;DHT22;5625;50.122;19.864;2023-05-16T10:46:59;27.50;99.90
11142;DHT22;5625;50.122;19.864;2023-05-16T10:49:30;27.40;99.90
11142;DHT22;5625;50.122;19.864;2023-05-16T10:52:06;27.40;99.90
11142;DHT22;5625;50.122;19.864;2023-05-16T10:54:35;26.90;99.90
11142;DHT22;5625;50.122;19.864;2023-05-16T10:57:09;27.00;99.90
11142;DHT22;5625;50.122;19.864;2023-05-16T10:59:42;26.90;99.90
11142;DHT22;5625;50.122;19.864;2023-05-16T11:02:25;27.10;99.90
11142;DHT22;5625;50.122;19.864;2023-05-16T11:04:55;26.80;99.90
11142;DHT22;5625;50.122;19.864;2023-05-16T11:07:32;26.50;99.90
11142;DHT22;5625;50.122;19.864;2023-05-16T11:10:05;26.20;99.90
11142;DHT22;5625;50.122;19.864;2023-05-16T11:12:41;25.90;99.90
11142;DHT22;5625;50.122;19.864;2023-05-16T11:15:17;25.90;99.90
11142;DHT22;5625;50.122;19.864;2023-05-16T11:17:46;25.90;99.90
11142;DHT22;5625;50.122;19.864;2023-05-16T11:20:24;26.00;99.90
11142;DHT22;5625;50.122;19.864;2023-05-16T11:23:20;26.00;99.90
11142;DHT22;5625;50.122;19.864;2023-05-16T11:25:52;25.90;99.90
11142;DHT22;5625;50.122;19.864;2023-05-16T11:28:21;25.90;99.90
11142;DHT22;5625;50.122;19.864;2023-05-16T11:30:51;26.00;99.90
11142;DHT22;5625;50.122;19.864;2023-05-16T11:33:23;26.00;99.90
11142;DHT22;5625;50.122;19.864;2023-05-16T11:36:01;25.70;99.90
11142;DHT22;5625;50.122;19.864;2023-05-16T11:38:43;25.60;99.90
11142;DHT22;5625;50.122;19.864;2023-05-16T11:41:11;25.30;99.90
11142;DHT22;5625;50.122;19.864;2023-05-16T11:43:43;25.30;99.90
11142;DHT22;5625;50.122;19.864;2023-05-16T11:46:12;25.20;99.90
11142;DHT22;5625;50.122;19.864;2023-05-16T11:48:40;25.30;99.90
11142;DHT22;5625;50.122;19.864;2023-05-16T11:51:09;25.00;1.00
11142;DHT22;5625;50.122;19.864;2023-05-16T11:53:37;24.90;1.00
11142;DHT22;5625;50.122;19.864;2023-05-16T11:56:07;24.80;1.00
11142;DHT22;5625;50.122;19.864;2023-05-16T11:58:36;24.70;1.00
11142;DHT22;5625;50.122;19.864;2023-05-16T12:01:04;24.70;1.00
11142;DHT22;5625;50.122;19.864;2023-05-16T12:03:33;24.70;1.00
11142;DHT22;5625;50.122;19.864;2023-05-16T12:06:03;24.40;1.00
11142;DHT22;5625;50.122;19.864;2023-05-16T12:08:31;24.20;1.00
11142;DHT22;5625;50.122;19.864;2023-05-16T12:11:00;24.10;1.00
11142;DHT22;5625;50.122;19.864;2023-05-16T12:13:29;23.80;47.80
11142;DHT22;5625;50.122;19.864;2023-05-16T12:15:58;23.60;99.90
11142;DHT22;5625;50.122;19.864;2023-05-16T12:18:26;23.50;99.90
11142;DHT22;5625;50.122;19.864;2023-05-16T12:20:54;23.40;99.90
11142;DHT22;5625;50.122;19.864;2023-05-16T12:23:22;23.20;99.90
11142;DHT22;5625;50.122;19.864;2023-05-16T12:25:54;22.80;99.90
11142;DHT22;5625;50.122;19.864;2023-05-16T12:28:23;22.70;1.00
11142;DHT22;5625;50.122;19.864;2023-05-16T12:30:55;22.70;1.00
11142;DHT22;5625;50.122;19.864;2023-05-16T12:33:23;22.50;1.00
11142;DHT22;5625;50.122;19.864;2023-05-16T12:35:51;22.40;1.00
11142;DHT22;5625;50.122;19.864;2023-05-16T12:38:20;22.40;99.90
11142;DHT22;5625;50.122;19.864;2023-05-16T12:40:57;22.40;62.10
11142;DHT22;5625;50.122;19.864;2023-05-16T12:43:25;22.40;99.90
11142;DHT22;5625;50.122;19.864;2023-05-16T12:45:56;22.30;40.70
11142;DHT22;5625;50.122;19.864;2023-05-16T12:48:32;22.20;99.90
11142;DHT22;5625;50.122;19.864;2023-05-16T12:51:11;22.00;38.20
11142;DHT22;5625;50.122;19.864;2023-05-16T12:53:41;21.90;99.90
11142;DHT22;5625;50.122;19.864;2023-05-16T12:56:27;21.80;99.90
11142;DHT22;5625;50.122;19.864;2023-05-16T12:58:55;21.70;14.80
11142;DHT22;5625;50.122;19.864;2023-05-16T13:01:25;21.70;2.80
11142;DHT22;5625;50.122;19.864;2023-05-16T13:03:53;21.50;99.90
11142;DHT22;5625;50.122;19.864;2023-05-16T13:06:21;21.50;99.90
11142;DHT22;5625;50.122;19.864;2023-05-16T13:08:49;21.40;31.00
11142;DHT22;5625;50.122;19.864;2023-05-16T13:11:17;21.50;99.90
11142;DHT22;5625;50.122;19.864;2023-05-16T13:13:46;21.50;1.00
11142;DHT22;5625;50.122;19.864;2023-05-16T13:16:14;21.40;90.30
11142;DHT22;5625;50.122;19.864;2023-05-16T13:18:43;21.50;97.00
11142;DHT22;5625;50.122;19.864;2023-05-16T13:21:11;21.40;97.20
11142;DHT22;5625;50.122;19.864;2023-05-16T13:23:39;21.30;1.00
11142;DHT22;5625;50.122;19.864;2023-05-16T13:26:07;21.20;1.00
11142;DHT22;5625;50.122;19.864;2023-05-16T13:28:35;21.20;99.90
11142;DHT22;5625;50.122;19.864;2023-05-16T13:31:03;21.20;25.40
11142;DHT22;5625;50.122;19.864;2023-05-16T13:33:32;21.10;38.80
11142;DHT22;5625;50.122;19.864;2023-05-16T13:36:08;21.00;1.00
11142;DHT22;5625;50.122;19.864;2023-05-16T13:38:36;20.90;99.90
11142;DHT22;5625;50.122;19.864;2023-05-16T13:41:04;20.80;1.00
11142;DHT22;5625;50.122;19.864;2023-05-16T13:43:34;20.80;22.50
11142;DHT22;5625;50.122;19.864;2023-05-16T13:46:02;20.70;99.90
11142;DHT22;5625;50.122;19.864;2023-05-16T13:48:30;20.60;99.90
11142;DHT22;5625;50.122;19.864;2023-05-16T13:50:58;20.60;99.90
11142;DHT22;5625;50.122;19.864;2023-05-16T13:53:28;20.50;1.00
11142;DHT22;5625;50.122;19.864;2023-05-16T13:55:56;20.50;1.00
11142;DHT22;5625;50.122;19.864;2023-05-16T13:58:24;20.50;99.90
11142;DHT22;5625;50.122;19.864;2023-05-16T14:00:55;20.50;99.90
11142;DHT22;5625;50.122;19.864;2023-05-16T14:03:23;20.50;99.90
11142;DHT22;5625;50.122;19.864;2023-05-16T14:05:51;20.50;99.90
11142;DHT22;5625;50.122;19.864;2023-05-16T14:08:20;20.40;99.90
11142;DHT22;5625;50.122;19.864;2023-05-16T14:10:49;20.40;99.90
11142;DHT22;5625;50.122;19.864;2023-05-16T14:13:17;20.40;99.90
11142;DHT22;5625;50.122;19.864;2023-05-16T14:15:45;20.30;99.90
11142;DHT22;5625;50.122;19.864;2023-05-16T14:18:13;20.10;99.90
11142;DHT22;5625;50.122;19.864;2023-05-16T14:20:41;20.10;99.90
11142;DHT22;5625;50.122;19.864;2023-05-16T14:23:09;20.00;1.00
11142;DHT22;5625;50.122;19.864;2023-05-16T14:25:37;20.00;1.00
11142;DHT22;5625;50.122;19.864;2023-05-16T14:28:07;20.00;1.00
11142;DHT22;5625;50.122;19.864;2023-05-16T14:30:35;19.90;1.00
11142;DHT22;5625;50.122;19.864;2023-05-16T14:33:03;19.70;99.90
11142;DHT22;5625;50.122;19.864;2023-05-16T14:35:31;19.60;99.90
11142;DHT22;5625;50.122;19.864;2023-05-16T14:38:00;19.60;1.00
11142;DHT22;5625;50.122;19.864;2023-05-16T14:40:28;19.60;1.00
11142;DHT22;5625;50.122;19.864;2023-05-16T14:42:56;19.50;99.90
11142;DHT22;5625;50.122;19.864;2023-05-16T14:45:25;19.40;99.90
11142;DHT22;5625;50.122;19.864;2023-05-16T14:47:54;19.30;99.90
11142;DHT22;5625;50.122;19.864;2023-05-16T14:50:22;19.30;99.90
11142;DHT22;5625;50.122;19.864;2023-05-16T14:52:50;19.20;99.90
11142;DHT22;5625;50.122;19.864;2023-05-16T14:55:20;19.10;99.90
11142;DHT22;5625;50.122;19.864;2023-05-16T14:57:48;19.10;99.90
11142;DHT22;5625;50.122;19.864;2023-05-16T15:00:27;19.10;1.00
11142;DHT22;5625;50.122;19.864;2023-05-16T15:02:56;19.10;99.90
11142;DHT22;5625;50.122;19.864;2023-05-16T15:05:24;19.00;99.90
11142;DHT22;5625;50.122;19.864;2023-05-16T15:07:52;19.00;99.90
11142;DHT22;5625;50.122;19.864;2023-05-16T15:10:20;19.00;99.90
11142;DHT22;5625;50.122;19.864;2023-05-16T15:12:48;18.90;99.90
11142;DHT22;5625;50.122;19.864;2023-05-16T15:15:16;18.80;99.90
11142;DHT22;5625;50.122;19.864;2023-05-16T15:17:48;18.70;99.90
11142;DHT22;5625;50.122;19.864;2023-05-16T15:20:17;18.70;99.90
11142;DHT22;5625;50.122;19.864;2023-05-16T15:22:48;18.70;99.90
11142;DHT22;5625;50.122;19.864;2023-05-16T15:25:16;18.60;99.90
11142;DHT22;5625;50.122;19.864;2023-05-16T15:27:44;18.60;99.90
11142;DHT22;5625;50.122;19.864;2023-05-16T15:30:12;18.60;99.90
11142;DHT22;5625;50.122;19.864;2023-05-16T15:32:41;18.60;1.00
11142;DHT22;5625;50.122;19.864;2023-05-16T15:35:10;18.60;1.00
11142;DHT22;5625;50.122;19.864;2023-05-16T15:37:39;18.60;1.00
11142;DHT22;5625;50.122;19.864;2023-05-16T15:40:09;18.60;1.00
11142;DHT22;5625;50.122;19.864;2023-05-16T15:42:37;18.60;2.70
11142;DHT22;5625;50.122;19.864;2023-05-16T15:45:06;18.60;1.80
11142;DHT22;5625;50.122;19.864;2023-05-16T15:47:37;18.60;17.20